sensor_id;sensor_type;location;lat;lon;timestamp;temperature;humidity
15879;DHT22;61999;51.514;14.614;2023-02-22T00:01:54;3.50;70.00
15879;DHT22;61999;51.514;14.614;2023-02-22T00:04:48;3.40;69.30
15879;DHT22;61999;51.514;14.614;2023-02-22T00:07:16;3.40;68.80
15879;DHT22;61999;51.514;14.614;2023-02-22T00:09:46;3.30;68.80
15879;DHT22;61999;51.514;14.614;2023-02-22T00:12:15;3.30;69.50
15879;DHT22;61999;51.514;14.614;2023-02-22T00:14:42;3.30;69.90
15879;DHT22;61999;51.514;14.614;2023-02-22T00:17:11;3.30;69.70
15879;DHT22;61999;51.514;14.614;2023-02-22T00:19:42;3.20;70.00
15879;DHT22;61999;51.514;14.614;2023-02-22T00:22:11;3.30;70.30
15879;DHT22;61999;51.514;14.614;2023-02-22T00:24:39;3.30;70.40
15879;DHT22;61999;51.514;14.614;2023-02-22T00:27:07;3.30;70.60
15879;DHT22;61999;51.514;14.614;2023-02-22T00:29:36;3.40;70.50
15879;DHT22;61999;51.514;14.614;2023-02-22T00:32:04;3.40;70.40
15879;DHT22;61999;51.514;14.614;2023-02-22T00:34:32;3.30;70.10
15879;DHT22;61999;51.514;14.614;2023-02-22T00:37:00;3.30;69.90
15879;DHT22;61999;51.514;14.614;2023-02-22T00:39:31;3.30;69.80
15879;DHT22;61999;51.514;14.614;2023-02-22T00:41:59;3.20;69.60
15879;DHT22;61999;51.514;14.614;2023-02-22T00:44:27;3.20;69.70
15879;DHT22;61999;51.514;14.614;2023-02-22T00:46:55;3.10;69.70
15879;DHT22;61999;51.514;14.614;2023-02-22T00:49:23;3.10;70.10
15879;DHT22;61999;51.514;14.614;2023-02-22T00:51:51;3.10;69.90
15879;DHT22;61999;51.514;14.614;2023-02-22T00:54:20;3.10;70.40
15879;DHT22;61999;51.514;14.614;2023-02-22T00:56:50;3.10;70.20
15879;DHT22;61999;51.514;14.614;2023-02-22T00:59:18;3.10;70.00
15879;DHT22;61999;51.514;14.614;2023-02-22T01:01:46;3.10;70.10
15879;DHT22;61999;51.514;14.614;2023-02-22T01:04:14;3.10;70.00
15879;DHT22;61999;51.514;14.614;2023-02-22T01:06:54;3.00;70.60
15879;DHT22;61999;51.514;14.614;2023-02-22T01:09:24;3.00;70.10
15879;DHT22;61999;51.514;14.614;2023-02-22T01:11:54;3.10;70.50
15879;DHT22;61999;51.514;14.614;2023-02-22T01:14:24;3.10;69.80
15879;DHT22;61999;51.514;14.614;2023-02-22T01:16:54;3.10;69.90
15879;DHT22;61999;51.514;14.614;2023-02-22T01:19:23;3.10;70.20
15879;DHT22;61999;51.514;14.614;2023-02-22T01:21:51;3.20;70.00
15879;DHT22;61999;51.514;14.614;2023-02-22T01:24:20;3.20;69.90
15879;DHT22;61999;51.514;14.614;2023-02-22T01:26:49;3.10;69.70
15879;DHT22;61999;51.514;14.614;2023-02-22T01:29:20;3.00;69.70
15879;DHT22;61999;51.514;14.614;2023-02-22T01:31:52;2.90;69.60
15879;DHT22;61999;51.514;14.614;2023-02-22T01:34:22;2.90;69.80
15879;DHT22;61999;51.514;14.614;2023-02-22T01:36:51;2.90;70.00
15879;DHT22;61999;51.514;14.614;2023-02-22T01:39:19;2.80;70.00
15879;DHT22;61999;51.514;14.614;2023-02-22T01:41:47;2.80;70.40
15879;DHT22;61999;51.514;14.614;2023-02-22T01:44:26;2.80;70.50
15879;DHT22;61999;51.514;14.614;2023-02-22T01:46:56;2.80;70.70
15879;DHT22;61999;51.514;14.614;2023-02-22T01:49:30;2.80;70.90
15879;DHT22;61999;51.514;14.614;2023-02-22T01:52:05;2.90;71.10
15879;DHT22;61999;51.514;14.614;2023-02-22T01:54:40;2.90;71.10
15879;DHT22;61999;51.514;14.614;2023-02-22T01:57:17;2.90;71.20
15879;DHT22;61999;51.514;14.614;2023-02-22T01:59:54;2.90;71.30
15879;DHT22;61999;51.514;14.614;2023-02-22T02:02:25;3.00;71.40
15879;DHT22;61999;51.514;14.614;2023-02-22T02:04:55;3.00;71.50
15879;DHT22;61999;51.514;14.614;2023-02-22T02:07:25;3.00;71.50
15879;DHT22;61999;51.514;14.614;2023-02-22T02:09:59;3.10;71.50
15879;DHT22;61999;51.514;14.614;2023-02-22T02:12:31;3.10;71.50
15879;DHT22;61999;51.514;14.614;2023-02-22T02:15:22;3.10;70.50
15879;DHT22;61999;51.514;14.614;2023-02-22T02:17:56;3.00;69.90
15879;DHT22;61999;51.514;14.614;2023-02-22T02:20:33;3.00;70.50
15879;DHT22;61999;51.514;14.614;2023-02-22T02:23:22;3.00;70.50
15879;DHT22;61999;51.514;14.614;2023-02-22T02:26:29;3.00;70.60
15879;DHT22;61999;51.514;14.614;2023-02-22T02:32:34;3.00;70.80
15879;DHT22;61999;51.514;14.614;2023-02-22T02:35:12;2.90;70.70
15879;DHT22;61999;51.514;14.614;2023-02-22T02:37:54;2.90;70.90
15879;DHT22;61999;51.514;14.614;2023-02-22T02:40:30;3.00;71.10
15879;DHT22;61999;51.514;14.614;2023-02-22T02:43:09;3.00;71.20
15879;DHT22;61999;51.514;14.614;2023-02-22T02:45:46;3.00;71.30
15879;DHT22;61999;51.514;14.614;2023-02-22T02:48:24;3.00;71.30
15879;DHT22;61999;51.514;14.614;2023-02-22T02:50:57;3.10;71.40
15879;DHT22;61999;51.514;14.614;2023-02-22T02:53:31;3.10;71.40
15879;DHT22;61999;51.514;14.614;2023-02-22T02:56:03;3.00;71.10
15879;DHT22;61999;51.514;14.614;2023-02-22T02:58:33;3.00;71.20
15879;DHT22;61999;51.514;14.614;2023-02-22T03:01:11;3.00;71.30
15879;DHT22;61999;51.514;14.614;2023-02-22T03:03:51;3.10;71.30
15879;DHT22;61999;51.514;14.614;2023-02-22T03:09:54;3.00;70.70
15879;DHT22;61999;51.514;14.614;2023-02-22T03:12:37;3.00;70.10
15879;DHT22;61999;51.514;14.614;2023-02-22T03:15:18;3.00;70.50
15879;DHT22;61999;51.514;14.614;2023-02-22T03:18:02;3.00;70.90
15879;DHT22;61999;51.514;14.614;2023-02-22T03:20:41;3.00;70.80
15879;DHT22;61999;51.514;14.614;2023-02-22T03:23:21;3.00;70.80
15879;DHT22;61999;51.514;14.614;2023-02-22T03:25:57;3.00;70.90
15879;DHT22;61999;51.514;14.614;2023-02-22T03:28:31;3.00;71.00
15879;DHT22;61999;51.514;14.614;2023-02-22T03:31:07;3.00;71.10
15879;DHT22;61999;51.514;14.614;2023-02-22T03:33:41;3.00;71.00
15879;DHT22;61999;51.514;14.614;2023-02-22T03:36:17;3.00;70.70
15879;DHT22;61999;51.514;14.614;2023-02-22T03:38:51;3.00;71.10
15879;DHT22;61999;51.514;14.614;2023-02-22T03:41:22;3.00;71.10
15879;DHT22;61999;51.514;14.614;2023-02-22T03:43:56;3.00;71.20
15879;DHT22;61999;51.514;14.614;2023-02-22T03:46:29;3.00;71.20
15879;DHT22;61999;51.514;14.614;2023-02-22T03:49:01;3.00;71.30
15879;DHT22;61999;51.514;14.614;2023-02-22T03:51:37;3.10;71.40
15879;DHT22;61999;51.514;14.614;2023-02-22T03:54:06;3.10;71.50
15879;DHT22;61999;51.514;14.614;2023-02-22T03:56:38;3.10;71.60
15879;DHT22;61999;51.514;14.614;2023-02-22T03:59:12;3.00;70.50
15879;DHT22;61999;51.514;14.614;2023-02-22T04:01:41;3.00;70.50
15879;DHT22;61999;51.514;14.614;2023-02-22T04:04:09;3.00;70.80
15879;DHT22;61999;51.514;14.614;2023-02-22T04:06:39;3.00;71.00
15879;DHT22;61999;51.514;14.614;2023-02-22T04:09:07;3.00;71.20
15879;DHT22;61999;51.514;14.614;2023-02-22T04:11:35;3.00;71.30
15879;DHT22;61999;51.514;14.614;2023-02-22T04:14:04;3.00;71.20
15879;DHT22;61999;51.514;14.614;2023-02-22T04:16:32;3.00;71.10
15879;DHT22;61999;51.514;14.614;2023-02-22T04:19:00;3.00;71.00
15879;DHT22;61999;51.514;14.614;2023-02-22T04:21:28;3.00;70.50
15879;DHT22;61999;51.514;14.614;2023-02-22T04:23:57;3.00;70.70
15879;DHT22;61999;51.514;14.614;2023-02-22T04:26:26;3.00;71.00
15879;DHT22;61999;51.514;14.614;2023-02-22T04:28:54;3.00;70.90
15879;DHT22;61999;51.514;14.614;2023-02-22T04:31:22;3.00;71.00
15879;DHT22;61999;51.514;14.614;2023-02-22T04:33:49;3.00;71.10
15879;DHT22;61999;51.514;14.614;2023-02-22T04:36:17;3.00;71.10
15879;DHT22;61999;51.514;14.614;2023-02-22T04:38:47;3.00;70.90
15879;DHT22;61999;51.514;14.614;2023-02-22T04:41:17;3.00;70.60
15879;DHT22;61999;51.514;14.614;2023-02-22T04:43:46;2.90;70.60
15879;DHT22;61999;51.514;14.614;2023-02-22T04:46:14;2.90;70.80
15879;DHT22;61999;51.514;14.614;2023-02-22T04:48:43;2.90;70.90
15879;DHT22;61999;51.514;14.614;2023-02-22T04:51:11;2.90;71.10
15879;DHT22;61999;51.514;14.614;2023-02-22T04:53:39;2.90;71.10
15879;DHT22;61999;51.514;14.614;2023-02-22T04:56:06;2.90;71.20
15879;DHT22;61999;51.514;14.614;2023-02-22T04:58:36;2.90;70.90
15879;DHT22;61999;51.514;14.614;2023-02-22T05:01:04;2.90;71.00
15879;DHT22;61999;51.514;14.614;2023-02-22T05:03:36;2.90;71.00
15879;DHT22;61999;51.514;14.614;2023-02-22T05:06:05;2.90;70.30
15879;DHT22;61999;51.514;14.614;2023-02-22T05:08:33;2.80;70.40
15879;DHT22;61999;51.514;14.614;2023-02-22T05:11:01;2.80;70.30
15879;DHT22;61999;51.514;14.614;2023-02-22T05:13:30;2.80;70.60
15879;DHT22;61999;51.514;14.614;2023-02-22T05:16:00;2.80;70.90
15879;DHT22;61999;51.514;14.614;2023-02-22T05:18:28;2.80;71.10
15879;DHT22;61999;51.514;14.614;2023-02-22T05:20:56;2.80;71.20
15879;DHT22;61999;51.514;14.614;2023-02-22T05:23:24;2.80;71.30
15879;DHT22;61999;51.514;14.614;2023-02-22T05:25:52;2.80;71.00
15879;DHT22;61999;51.514;14.614;2023-02-22T05:28:20;2.80;70.80
15879;DHT22;61999;51.514;14.614;2023-02-22T05:30:48;2.80;70.90
15879;DHT22;61999;51.514;14.614;2023-02-22T05:33:18;2.70;70.30
15879;DHT22;61999;51.514;14.614;2023-02-22T05:35:46;2.70;70.80
15879;DHT22;61999;51.514;14.614;2023-02-22T05:38:14;2.70;70.80
15879;DHT22;61999;51.514;14.614;2023-02-22T05:40:43;2.70;70.90
15879;DHT22;61999;51.514;14.614;2023-02-22T05:43:11;2.70;71.00
15879;DHT22;61999;51.514;14.614;2023-02-22T05:45:41;2.70;71.00
15879;DHT22;61999;51.514;14.614;2023-02-22T05:48:09;2.60;70.60
15879;DHT22;61999;51.514;14.614;2023-02-22T05:50:39;2.60;70.90
15879;DHT22;61999;51.514;14.614;2023-02-22T05:53:07;2.60;71.00
15879;DHT22;61999;51.514;14.614;2023-02-22T05:55:35;2.60;71.20
15879;DHT22;61999;51.514;14.614;2023-02-22T05:58:03;2.60;70.80
15879;DHT22;61999;51.514;14.614;2023-02-22T06:00:32;2.40;71.20
15879;DHT22;61999;51.514;14.614;2023-02-22T06:03:03;2.40;71.30
15879;DHT22;61999;51.514;14.614;2023-02-22T06:05:33;2.30;71.50
15879;DHT22;61999;51.514;14.614;2023-02-22T06:08:04;2.30;71.60
15879;DHT22;61999;51.514;14.614;2023-02-22T06:10:33;2.30;71.70
15879;DHT22;61999;51.514;14.614;2023-02-22T06:13:01;2.40;71.90
15879;DHT22;61999;51.514;14.614;2023-02-22T06:15:30;2.40;71.90
15879;DHT22;61999;51.514;14.614;2023-02-22T06:17:59;2.50;72.00
15879;DHT22;61999;51.514;14.614;2023-02-22T06:20:29;2.40;71.70
15879;DHT22;61999;51.514;14.614;2023-02-22T06:22:57;2.30;71.70
15879;DHT22;61999;51.514;14.614;2023-02-22T06:25:28;2.40;72.10
15879;DHT22;61999;51.514;14.614;2023-02-22T06:27:58;2.60;71.60
15879;DHT22;61999;51.514;14.614;2023-02-22T06:30:28;2.60;71.30
15879;DHT22;61999;51.514;14.614;2023-02-22T06:32:57;2.50;71.20
15879;DHT22;61999;51.514;14.614;2023-02-22T06:35:25;2.40;71.50
15879;DHT22;61999;51.514;14.614;2023-02-22T06:37:53;2.40;71.70
15879;DHT22;61999;51.514;14.614;2023-02-22T06:40:21;2.40;71.90
15879;DHT22;61999;51.514;14.614;2023-02-22T06:42:50;2.40;71.90
15879;DHT22;61999;51.514;14.614;2023-02-22T06:45:19;2.40;72.10
15879;DHT22;61999;51.514;14.614;2023-02-22T06:47:47;2.40;72.20
15879;DHT22;61999;51.514;14.614;2023-02-22T06:50:19;2.50;72.40
15879;DHT22;61999;51.514;14.614;2023-02-22T06:52:49;2.50;72.40
15879;DHT22;61999;51.514;14.614;2023-02-22T06:55:19;2.60;72.30
15879;DHT22;61999;51.514;14.614;2023-02-22T06:57:52;2.50;72.10
15879;DHT22;61999;51.514;14.614;2023-02-22T07:00:22;2.40;72.00
15879;DHT22;61999;51.514;14.614;2023-02-22T07:02:53;2.50;72.30
15879;DHT22;61999;51.514;14.614;2023-02-22T07:05:22;2.50;71.90
15879;DHT22;61999;51.514;14.614;2023-02-22T07:07:53;2.50;72.20
15879;DHT22;61999;51.514;14.614;2023-02-22T07:10:25;2.50;72.30
15879;DHT22;61999;51.514;14.614;2023-02-22T07:12:56;2.50;72.30
15879;DHT22;61999;51.514;14.614;2023-02-22T07:15:26;2.60;72.30
15879;DHT22;61999;51.514;14.614;2023-02-22T07:17:55;2.70;72.30
15879;DHT22;61999;51.514;14.614;2023-02-22T07:20:26;2.70;72.30
15879;DHT22;61999;51.514;14.614;2023-02-22T07:22:56;2.80;72.30
15879;DHT22;61999;51.514;14.614;2023-02-22T07:25:24;2.70;71.40
15879;DHT22;61999;51.514;14.614;2023-02-22T07:27:52;2.70;71.30
15879;DHT22;61999;51.514;14.614;2023-02-22T07:30:23;2.80;71.80
15879;DHT22;61999;51.514;14.614;2023-02-22T07:32:57;2.80;71.90
15879;DHT22;61999;51.514;14.614;2023-02-22T07:35:27;2.80;71.00
15879;DHT22;61999;51.514;14.614;2023-02-22T07:37:56;2.80;71.10
15879;DHT22;61999;51.514;14.614;2023-02-22T07:40:26;2.70;70.60
15879;DHT22;61999;51.514;14.614;2023-02-22T07:42:56;2.70;71.10
15879;DHT22;61999;51.514;14.614;2023-02-22T07:45:28;2.80;71.50
15879;DHT22;61999;51.514;14.614;2023-02-22T07:47:58;2.80;71.50
15879;DHT22;61999;51.514;14.614;2023-02-22T07:50:29;2.80;71.10
15879;DHT22;61999;51.514;14.614;2023-02-22T07:53:00;2.80;70.80
15879;DHT22;61999;51.514;14.614;2023-02-22T07:55:31;2.70;70.70
15879;DHT22;61999;51.514;14.614;2023-02-22T07:58:01;2.80;70.90
15879;DHT22;61999;51.514;14.614;2023-02-22T08:00:34;2.90;71.70
15879;DHT22;61999;51.514;14.614;2023-02-22T08:03:06;2.80;70.40
15879;DHT22;61999;51.514;14.614;2023-02-22T08:05:38;2.80;70.40
15879;DHT22;61999;51.514;14.614;2023-02-22T08:08:08;2.80;70.60
15879;DHT22;61999;51.514;14.614;2023-02-22T08:10:35;2.80;71.10
15879;DHT22;61999;51.514;14.614;2023-02-22T08:13:04;2.80;70.40
15879;DHT22;61999;51.514;14.614;2023-02-22T08:15:35;2.80;70.70
15879;DHT22;61999;51.514;14.614;2023-02-22T08:18:06;2.70;71.20
15879;DHT22;61999;51.514;14.614;2023-02-22T08:20:36;2.70;70.60
15879;DHT22;61999;51.514;14.614;2023-02-22T08:23:05;2.70;71.50
15879;DHT22;61999;51.514;14.614;2023-02-22T08:25:35;2.90;71.70
15879;DHT22;61999;51.514;14.614;2023-02-22T08:28:06;2.90;71.20
15879;DHT22;61999;51.514;14.614;2023-02-22T08:30:38;2.80;70.70
15879;DHT22;61999;51.514;14.614;2023-02-22T08:33:08;2.80;71.10
15879;DHT22;61999;51.514;14.614;2023-02-22T08:35:40;2.90;71.40
15879;DHT22;61999;51.514;14.614;2023-02-22T08:38:15;3.10;71.70
15879;DHT22;61999;51.514;14.614;2023-02-22T08:40:46;3.20;71.50
15879;DHT22;61999;51.514;14.614;2023-02-22T08:43:15;3.30;70.40
15879;DHT22;61999;51.514;14.614;2023-02-22T08:45:45;3.20;70.70
15879;DHT22;61999;51.514;14.614;2023-02-22T08:48:15;3.30;70.10
15879;DHT22;61999;51.514;14.614;2023-02-22T08:50:43;3.30;69.90
15879;DHT22;61999;51.514;14.614;2023-02-22T08:53:13;3.30;69.20
15879;DHT22;61999;51.514;14.614;2023-02-22T08:55:43;3.30;68.80
15879;DHT22;61999;51.514;14.614;2023-02-22T08:58:11;3.20;70.30
15879;DHT22;61999;51.514;14.614;2023-02-22T09:00:41;3.30;70.20
15879;DHT22;61999;51.514;14.614;2023-02-22T09:03:13;3.40;69.60
15879;DHT22;61999;51.514;14.614;2023-02-22T09:05:42;3.40;69.50
15879;DHT22;61999;51.514;14.614;2023-02-22T09:08:10;3.50;69.30
15879;DHT22;61999;51.514;14.614;2023-02-22T09:10:38;3.50;69.90
15879;DHT22;61999;51.514;14.614;2023-02-22T09:13:07;3.60;69.90
15879;DHT22;61999;51.514;14.614;2023-02-22T09:15:36;3.70;69.70
15879;DHT22;61999;51.514;14.614;2023-02-22T09:18:06;3.80;68.40
15879;DHT22;61999;51.514;14.614;2023-02-22T09:20:38;3.80;69.20
15879;DHT22;61999;51.514;14.614;2023-02-22T09:23:06;3.90;70.00
15879;DHT22;61999;51.514;14.614;2023-02-22T09:25:36;4.00;69.30
15879;DHT22;61999;51.514;14.614;2023-02-22T09:28:06;4.00;68.50
15879;DHT22;61999;51.514;14.614;2023-02-22T09:30:35;3.90;67.80
15879;DHT22;61999;51.514;14.614;2023-02-22T09:33:05;3.90;68.50
15879;DHT22;61999;51.514;14.614;2023-02-22T09:35:38;4.10;69.20
15879;DHT22;61999;51.514;14.614;2023-02-22T09:38:08;4.00;67.80
15879;DHT22;61999;51.514;14.614;2023-02-22T09:40:40;3.90;65.90
15879;DHT22;61999;51.514;14.614;2023-02-22T09:43:20;4.20;67.90
15879;DHT22;61999;51.514;14.614;2023-02-22T09:46:07;4.40;66.30
15879;DHT22;61999;51.514;14.614;2023-02-22T09:48:54;4.30;65.60
15879;DHT22;61999;51.514;14.614;2023-02-22T09:51:33;4.30;66.00
15879;DHT22;61999;51.514;14.614;2023-02-22T09:54:13;4.20;66.10
15879;DHT22;61999;51.514;14.614;2023-02-22T09:56:51;4.10;65.20
15879;DHT22;61999;51.514;14.614;2023-02-22T09:59:27;3.90;64.70
15879;DHT22;61999;51.514;14.614;2023-02-22T10:02:02;3.80;66.40
15879;DHT22;61999;51.514;14.614;2023-02-22T10:04:45;3.90;64.70
15879;DHT22;61999;51.514;14.614;2023-02-22T10:07:26;3.80;65.30
15879;DHT22;61999;51.514;14.614;2023-02-22T10:09:59;3.80;64.40
15879;DHT22;61999;51.514;14.614;2023-02-22T10:12:37;3.70;64.10
15879;DHT22;61999;51.514;14.614;2023-02-22T10:15:39;3.70;65.00
15879;DHT22;61999;51.514;14.614;2023-02-22T10:18:40;3.60;62.50
15879;DHT22;61999;51.514;14.614;2023-02-22T10:21:32;3.70;64.20
15879;DHT22;61999;51.514;14.614;2023-02-22T10:24:19;3.60;63.70
15879;DHT22;61999;51.514;14.614;2023-02-22T10:26:57;3.50;64.40
15879;DHT22;61999;51.514;14.614;2023-02-22T10:29:31;3.70;65.10
15879;DHT22;61999;51.514;14.614;2023-02-22T10:32:11;3.70;65.20
15879;DHT22;61999;51.514;14.614;2023-02-22T10:34:45;3.80;63.00
15879;DHT22;61999;51.514;14.614;2023-02-22T10:37:23;3.70;63.60
15879;DHT22;61999;51.514;14.614;2023-02-22T10:39:57;3.90;64.90
15879;DHT22;61999;51.514;14.614;2023-02-22T10:42:31;3.90;64.70
15879;DHT22;61999;51.514;14.614;2023-02-22T10:44:58;3.90;63.90
15879;DHT22;61999;51.514;14.614;2023-02-22T10:47:27;4.00;63.60
15879;DHT22;61999;51.514;14.614;2023-02-22T10:49:57;4.00;64.20
15879;DHT22;61999;51.514;14.614;2023-02-22T10:52:30;4.00;62.90
15879;DHT22;61999;51.514;14.614;2023-02-22T10:55:02;3.90;62.40
15879;DHT22;61999;51.514;14.614;2023-02-22T10:57:43;3.90;62.60
15879;DHT22;61999;51.514;14.614;2023-02-22T11:00:16;3.80;62.80
15879;DHT22;61999;51.514;14.614;2023-02-22T11:02:51;4.00;63.60
15879;DHT22;61999;51.514;14.614;2023-02-22T11:05:26;4.10;63.70
15879;DHT22;61999;51.514;14.614;2023-02-22T11:08:23;4.20;63.90
15879;DHT22;61999;51.514;14.614;2023-02-22T11:10:56;4.30;63.30
15879;DHT22;61999;51.514;14.614;2023-02-22T11:13:30;4.40;62.70
15879;DHT22;61999;51.514;14.614;2023-02-22T11:16:15;4.30;60.90
15879;DHT22;61999;51.514;14.614;2023-02-22T11:18:46;4.50;63.50
15879;DHT22;61999;51.514;14.614;2023-02-22T11:21:21;4.40;60.00
15879;DHT22;61999;51.514;14.614;2023-02-22T11:24:00;4.40;60.00
15879;DHT22;61999;51.514;14.614;2023-02-22T11:26:37;4.30;60.70
15879;DHT22;61999;51.514;14.614;2023-02-22T11:29:11;4.20;61.00
15879;DHT22;61999;51.514;14.614;2023-02-22T11:31:45;4.40;60.40
15879;DHT22;61999;51.514;14.614;2023-02-22T11:34:31;4.30;60.10
15879;DHT22;61999;51.514;14.614;2023-02-22T11:37:29;4.40;61.60
15879;DHT22;61999;51.514;14.614;2023-02-22T11:40:14;4.50;61.00
15879;DHT22;61999;51.514;14.614;2023-02-22T11:43:05;4.60;61.50
15879;DHT22;61999;51.514;14.614;2023-02-22T11:45:37;4.70;62.50
15879;DHT22;61999;51.514;14.614;2023-02-22T11:48:18;4.60;61.40
15879;DHT22;61999;51.514;14.614;2023-02-22T11:50:57;4.70;61.60
15879;DHT22;61999;51.514;14.614;2023-02-22T11:53:48;4.60;62.10
15879;DHT22;61999;51.514;14.614;2023-02-22T11:56:38;4.80;62.90
15879;DHT22;61999;51.514;14.614;2023-02-22T11:59:20;4.70;61.20
15879;DHT22;61999;51.514;14.614;2023-02-22T12:02:04;4.90;62.20
15879;DHT22;61999;51.514;14.614;2023-02-22T12:05:08;4.90;61.20
15879;DHT22;61999;51.514;14.614;2023-02-22T12:07:54;5.10;63.30
15879;DHT22;61999;51.514;14.614;2023-02-22T12:10:55;5.20;63.20
15879;DHT22;61999;51.514;14.614;2023-02-22T12:13:39;5.30;62.60
15879;DHT22;61999;51.514;14.614;2023-02-22T12:16:23;5.30;59.70
15879;DHT22;61999;51.514;14.614;2023-02-22T12:19:09;5.10;59.90
15879;DHT22;61999;51.514;14.614;2023-02-22T12:21:46;5.20;62.50
15879;DHT22;61999;51.514;14.614;2023-02-22T12:24:21;5.30;60.70
15879;DHT22;61999;51.514;14.614;2023-02-22T12:26:55;5.30;60.20
15879;DHT22;61999;51.514;14.614;2023-02-22T12:29:36;5.30;61.00
15879;DHT22;61999;51.514;14.614;2023-02-22T12:32:13;5.10;59.60
15879;DHT22;61999;51.514;14.614;2023-02-22T12:34:46;4.90;60.00
15879;DHT22;61999;51.514;14.614;2023-02-22T12:37:22;4.90;61.10
15879;DHT22;61999;51.514;14.614;2023-02-22T12:39:58;4.90;61.20
15879;DHT22;61999;51.514;14.614;2023-02-22T12:42:44;5.00;60.50
15879;DHT22;61999;51.514;14.614;2023-02-22T12:45:25;5.20;60.50
15879;DHT22;61999;51.514;14.614;2023-02-22T12:48:19;5.10;59.90
15879;DHT22;61999;51.514;14.614;2023-02-22T12:50:56;5.10;59.90
15879;DHT22;61999;51.514;14.614;2023-02-22T12:53:31;5.00;59.30
15879;DHT22;61999;51.514;14.614;2023-02-22T12:56:14;4.90;59.40
15879;DHT22;61999;51.514;14.614;2023-02-22T12:58:52;4.80;59.90
15879;DHT22;61999;51.514;14.614;2023-02-22T13:01:33;4.70;60.50
15879;DHT22;61999;51.514;14.614;2023-02-22T13:04:05;4.60;61.00
15879;DHT22;61999;51.514;14.614;2023-02-22T13:06:56;4.70;61.90
15879;DHT22;61999;51.514;14.614;2023-02-22T13:09:47;4.90;62.10
15879;DHT22;61999;51.514;14.614;2023-02-22T13:12:32;5.00;60.20
15879;DHT22;61999;51.514;14.614;2023-02-22T13:15:13;5.10;60.20
15879;DHT22;61999;51.514;14.614;2023-02-22T13:17:53;5.10;59.90
15879;DHT22;61999;51.514;14.614;2023-02-22T13:20:34;5.00;59.80
15879;DHT22;61999;51.514;14.614;2023-02-22T13:23:10;5.00;59.60
15879;DHT22;61999;51.514;14.614;2023-02-22T13:25:49;5.00;59.70
15879;DHT22;61999;51.514;14.614;2023-02-22T13:28:30;4.90;59.10
15879;DHT22;61999;51.514;14.614;2023-02-22T13:31:22;5.00;59.70
15879;DHT22;61999;51.514;14.614;2023-02-22T13:34:32;4.80;59.20
15879;DHT22;61999;51.514;14.614;2023-02-22T13:37:30;5.00;59.90
15879;DHT22;61999;51.514;14.614;2023-02-22T13:40:38;5.10;58.70
15879;DHT22;61999;51.514;14.614;2023-02-22T13:43:33;5.10;59.60
15879;DHT22;61999;51.514;14.614;2023-02-22T13:46:58;5.20;59.40
15879;DHT22;61999;51.514;14.614;2023-02-22T13:52:53;5.20;59.40
15879;DHT22;61999;51.514;14.614;2023-02-22T13:55:28;5.00;59.30
15879;DHT22;61999;51.514;14.614;2023-02-22T13:58:02;5.00;59.70
15879;DHT22;61999;51.514;14.614;2023-02-22T14:00:45;5.10;59.40
15879;DHT22;61999;51.514;14.614;2023-02-22T14:03:33;5.10;59.20
15879;DHT22;61999;51.514;14.614;2023-02-22T14:06:08;5.20;60.50
15879;DHT22;61999;51.514;14.614;2023-02-22T14:08:59;5.30;60.70
15879;DHT22;61999;51.514;14.614;2023-02-22T14:11:42;5.30;59.50
15879;DHT22;61999;51.514;14.614;2023-02-22T14:14:13;5.40;59.90
15879;DHT22;61999;51.514;14.614;2023-02-22T14:16:44;5.50;60.60
15879;DHT22;61999;51.514;14.614;2023-02-22T14:20:18;5.50;59.60
15879;DHT22;61999;51.514;14.614;2023-02-22T14:22:57;5.20;58.70
15879;DHT22;61999;51.514;14.614;2023-02-22T14:25:49;5.10;59.20
15879;DHT22;61999;51.514;14.614;2023-02-22T14:28:38;5.00;59.60
15879;DHT22;61999;51.514;14.614;2023-02-22T14:31:24;5.10;59.70
15879;DHT22;61999;51.514;14.614;2023-02-22T14:34:08;5.00;60.00
15879;DHT22;61999;51.514;14.614;2023-02-22T14:36:43;5.00;60.00
15879;DHT22;61999;51.514;14.614;2023-02-22T14:39:21;5.00;59.10
15879;DHT22;61999;51.514;14.614;2023-02-22T14:42:02;5.10;60.00
15879;DHT22;61999;51.514;14.614;2023-02-22T14:44:37;5.10;59.30
15879;DHT22;61999;51.514;14.614;2023-02-22T14:47:19;5.20;60.10
15879;DHT22;61999;51.514;14.614;2023-02-22T14:49:58;5.30;60.40
15879;DHT22;61999;51.514;14.614;2023-02-22T14:52:35;5.40;60.50
15879;DHT22;61999;51.514;14.614;2023-02-22T14:55:13;5.50;60.50
15879;DHT22;61999;51.514;14.614;2023-02-22T14:57:52;5.60;60.70
15879;DHT22;61999;51.514;14.614;2023-02-22T15:00:36;5.60;60.70
15879;DHT22;61999;51.514;14.614;2023-02-22T15:03:17;5.70;60.80
15879;DHT22;61999;51.514;14.614;2023-02-22T15:05:54;5.80;60.80
15879;DHT22;61999;51.514;14.614;2023-02-22T15:08:25;5.80;61.60
15879;DHT22;61999;51.514;14.614;2023-02-22T15:10:54;5.90;60.60
15879;DHT22;61999;51.514;14.614;2023-02-22T15:13:27;5.90;60.10
15879;DHT22;61999;51.514;14.614;2023-02-22T15:15:59;5.90;59.10
15879;DHT22;61999;51.514;14.614;2023-02-22T15:18:32;5.70;58.10
15879;DHT22;61999;51.514;14.614;2023-02-22T15:21:05;5.50;57.10
15879;DHT22;61999;51.514;14.614;2023-02-22T15:23:41;5.40;58.50
15879;DHT22;61999;51.514;14.614;2023-02-22T15:26:23;5.30;58.00
15879;DHT22;61999;51.514;14.614;2023-02-22T15:28:56;5.20;58.00
15879;DHT22;61999;51.514;14.614;2023-02-22T15:31:29;5.10;58.00
15879;DHT22;61999;51.514;14.614;2023-02-22T15:34:09;5.10;58.50
15879;DHT22;61999;51.514;14.614;2023-02-22T15:36:51;4.90;58.30
15879;DHT22;61999;51.514;14.614;2023-02-22T15:39:23;4.90;59.20
15879;DHT22;61999;51.514;14.614;2023-02-22T15:42:04;4.80;58.70
15879;DHT22;61999;51.514;14.614;2023-02-22T15:44:36;4.70;58.50
15879;DHT22;61999;51.514;14.614;2023-02-22T15:47:06;4.70;59.20
15879;DHT22;61999;51.514;14.614;2023-02-22T15:49:38;4.70;59.20
15879;DHT22;61999;51.514;14.614;2023-02-22T15:52:12;4.80;59.20
15879;DHT22;61999;51.514;14.614;2023-02-22T15:54:48;4.70;59.30
15879;DHT22;61999;51.514;14.614;2023-02-22T15:57:19;4.80;59.60
15879;DHT22;61999;51.514;14.614;2023-02-22T15:59:53;4.80;59.50
15879;DHT22;61999;51.514;14.614;2023-02-22T16:02:35;4.90;59.90
15879;DHT22;61999;51.514;14.614;2023-02-22T16:05:09;4.90;60.00
15879;DHT22;61999;51.514;14.614;2023-02-22T16:07:41;4.90;59.90
15879;DHT22;61999;51.514;14.614;2023-02-22T16:10:21;4.90;60.10
15879;DHT22;61999;51.514;14.614;2023-02-22T16:13:04;4.90;60.20
15879;DHT22;61999;51.514;14.614;2023-02-22T16:15:34;5.00;60.30
15879;DHT22;61999;51.514;14.614;2023-02-22T16:18:16;5.00;60.50
15879;DHT22;61999;51.514;14.614;2023-02-22T16:20:57;5.00;60.50
15879;DHT22;61999;51.514;14.614;2023-02-22T16:23:28;5.00;60.60
15879;DHT22;61999;51.514;14.614;2023-02-22T16:26:23;5.00;60.60
15879;DHT22;61999;51.514;14.614;2023-02-22T16:28:56;5.00;59.50